Time;durP1;ratioP1;P1;durP2;ratioP2;P2;SDS_P1;SDS_P2;PMS_P1;PMS_P2;Temp;Humidity;BMP_temperature;BMP_pressure;BME280_temperature;BME280_humidity;BME280_pressure;Samples;Min_cycle;Max_cycle;Signal;HPM_P1;HPM_P2
2024/03/05 00:01:57;;;;;;;98.23;45.20;;;7.80;99.90;;;;;;786808;179;26455;-78
2024/03/05 00:04:25;;;;;;;102.83;45.67;;;7.90;99.90;;;;;;793394;179;27000;-78
2024/03/05 00:06:50;;;;;;;100.03;45.63;;;7.90;99.90;;;;;;785694;180;26449;-78
2024/03/05 00:09:17;;;;;;;98.93;44.37;;;7.80;99.90;;;;;;789898;180;27028;-78
2024/03/05 00:11:45;;;;;;;102.87;44.10;;;7.80;99.90;;;;;;793422;180;26453;-78
2024/03/05 00:14:10;;;;;;;98.80;43.30;;;7.70;99.90;;;;;;800734;178;26450;-75
2024/03/05 00:16:37;;;;;;;100.40;45.10;;;7.70;99.90;;;;;;795298;179;26443;-79
2024/03/05 00:19:03;;;;;;;89.27;43.40;;;7.80;99.90;;;;;;786108;179;26441;-78
2024/03/05 00:21:31;;;;;;;95.23;43.10;;;7.80;99.90;;;;;;791696;179;26481;-78
2024/03/05 00:23:56;;;;;;;97.80;43.27;;;7.70;99.90;;;;;;781343;183;26472;-78
2024/03/05 00:26:25;;;;;;;100.97;46.83;;;7.60;99.90;;;;;;789535;179;26458;-78
2024/03/05 00:28:50;;;;;;;98.53;43.93;;;7.50;99.90;;;;;;796640;179;27240;-77
2024/03/05 00:31:16;;;;;;;96.60;44.43;;;7.50;99.90;;;;;;799248;179;26458;-78
2024/03/05 00:33:43;;;;;;;116.43;47.03;;;7.60;99.90;;;;;;790947;180;27063;-78
2024/03/05 00:36:09;;;;;;;101.30;44.40;;;7.60;99.90;;;;;;789067;180;26468;-78
2024/03/05 00:38:36;;;;;;;102.57;45.87;;;7.50;99.90;;;;;;793245;177;26455;-79
2024/03/05 00:41:03;;;;;;;103.03;46.03;;;7.60;99.90;;;;;;787561;181;26542;-79
2024/03/05 00:43:29;;;;;;;114.33;46.13;;;7.70;99.90;;;;;;787945;180;26697;-79
2024/03/05 00:45:56;;;;;;;103.30;45.13;;;7.80;99.90;;;;;;796504;179;26438;-79
2024/03/05 00:48:23;;;;;;;99.70;45.07;;;7.90;99.90;;;;;;788871;180;27026;-78
2024/03/05 00:50:50;;;;;;;100.07;44.87;;;7.90;99.90;;;;;;790055;180;26474;-78
2024/03/05 00:53:16;;;;;;;94.93;45.43;;;8.00;99.90;;;;;;793617;179;26418;-79
2024/03/05 00:55:42;;;;;;;96.43;43.43;;;8.00;99.90;;;;;;798836;180;27026;-78
2024/03/05 00:58:09;;;;;;;98.20;45.83;;;8.00;99.90;;;;;;795230;177;26440;-78
2024/03/05 01:00:36;;;;;;;97.87;46.03;;;8.10;99.90;;;;;;787487;177;26538;-79
2024/03/05 01:03:02;;;;;;;97.03;45.27;;;8.10;99.90;;;;;;785859;180;26466;-79
2024/03/05 01:05:29;;;;;;;103.20;46.30;;;8.10;99.90;;;;;;794021;180;26432;-79
2024/03/05 01:07:56;;;;;;;105.47;45.37;;;8.10;99.90;;;;;;795094;180;26508;-79
2024/03/05 01:10:22;;;;;;;95.77;44.33;;;8.10;99.90;;;;;;797156;180;27026;-77
2024/03/05 01:12:49;;;;;;;96.80;45.27;;;8.10;99.90;;;;;;794987;179;26428;-78
2024/03/05 01:15:15;;;;;;;97.30;45.53;;;8.10;99.90;;;;;;793256;179;26423;-77
2024/03/05 01:17:42;;;;;;;106.73;46.33;;;8.00;99.90;;;;;;787202;180;27116;-78
2024/03/05 01:20:15;;;;;;;96.37;45.23;;;8.00;99.90;;;;;;797551;179;26432;-78
2024/03/05 01:22:37;;;;;;;97.87;45.97;;;8.00;99.90;;;;;;782872;176;26472;-79
2024/03/05 01:25:04;;;;;;;112.00;47.03;;;7.90;99.90;;;;;;786913;179;26476;-77
2024/03/05 01:27:30;;;;;;;110.03;46.17;;;7.90;99.90;;;;;;786345;179;26449;-78
2024/03/05 01:29:59;;;;;;;95.27;45.67;;;7.90;99.90;;;;;;785969;182;26533;-78
2024/03/05 01:32:24;;;;;;;107.93;46.30;;;7.80;99.90;;;;;;799074;179;26471;-78
2024/03/05 01:34:54;;;;;;;104.87;47.03;;;7.80;99.90;;;;;;790468;179;27094;-78
2024/03/05 01:37:17;;;;;;;113.30;47.83;;;7.70;99.90;;;;;;787056;180;26480;-78
2024/03/05 01:39:43;;;;;;;107.80;47.90;;;7.70;99.90;;;;;;786343;179;27003;-77
2024/03/05 01:42:10;;;;;;;105.50;47.50;;;7.60;99.90;;;;;;786673;179;26460;-77
2024/03/05 01:44:37;;;;;;;105.97;47.23;;;7.50;99.90;;;;;;785697;180;26492;-79
2024/03/05 01:47:04;;;;;;;123.43;49.33;;;7.50;99.90;;;;;;790063;180;26432;-78
2024/03/05 01:49:30;;;;;;;112.07;46.50;;;7.40;99.90;;;;;;782239;182;26481;-76
2024/03/05 01:51:57;;;;;;;121.57;47.97;;;7.40;99.90;;;;;;780207;183;26505;-78
2024/03/05 01:54:24;;;;;;;113.53;48.33;;;7.30;99.90;;;;;;791050;179;27170;-79
2024/03/05 01:56:51;;;;;;;118.83;49.47;;;7.30;99.90;;;;;;791462;180;26489;-78
2024/03/05 01:59:17;;;;;;;118.70;49.00;;;7.30;99.90;;;;;;792535;180;26461;-78
2024/03/05 02:01:44;;;;;;;118.13;49.60;;;7.30;99.90;;;;;;795594;180;26431;-78
2024/03/05 02:04:11;;;;;;;119.27;48.93;;;7.20;99.90;;;;;;798047;179;26487;-77
2024/03/05 02:06:38;;;;;;;111.47;47.77;;;7.20;99.90;;;;;;789494;180;26789;-77
2024/03/05 02:09:08;;;;;;;117.87;47.10;;;7.30;99.90;;;;;;784566;180;26518;-79
2024/03/05 02:11:36;;;;;;;125.73;51.07;;;7.30;99.90;;;;;;788071;180;26475;-79
2024/03/05 02:14:02;;;;;;;118.40;48.57;;;7.30;99.90;;;;;;784401;180;26440;-79
2024/03/05 02:16:30;;;;;;;119.60;48.10;;;7.30;99.90;;;;;;793842;180;26993;-79
2024/03/05 02:18:56;;;;;;;123.43;50.43;;;7.30;99.90;;;;;;789875;179;26453;-79
2024/03/05 02:21:23;;;;;;;119.10;48.83;;;7.30;99.90;;;;;;793533;180;26443;-78
2024/03/05 02:23:49;;;;;;;110.43;47.13;;;7.30;99.90;;;;;;796843;180;26595;-79
2024/03/05 02:26:19;;;;;;;111.53;45.90;;;7.40;99.90;;;;;;787010;180;26456;-79
2024/03/05 02:28:46;;;;;;;113.50;45.63;;;7.40;99.90;;;;;;788843;179;26449;-79
2024/03/05 02:31:12;;;;;;;115.23;45.67;;;7.40;99.90;;;;;;794316;179;26473;-78
2024/03/05 02:33:39;;;;;;;112.63;47.47;;;7.40;99.90;;;;;;796049;180;26401;-78
2024/03/05 02:36:08;;;;;;;114.53;46.70;;;7.40;99.90;;;;;;787391;179;26440;-78
2024/03/05 02:38:33;;;;;;;113.63;47.23;;;7.50;99.90;;;;;;794438;180;26447;-78
2024/03/05 02:40:59;;;;;;;114.03;46.60;;;7.50;99.90;;;;;;786168;179;26481;-78
2024/03/05 02:43:25;;;;;;;114.47;46.00;;;7.50;99.90;;;;;;792173;180;26455;-78
2024/03/05 02:45:52;;;;;;;113.03;45.87;;;7.50;99.90;;;;;;786697;180;26434;-78
2024/03/05 02:48:18;;;;;;;112.43;46.20;;;7.50;99.90;;;;;;784868;180;26483;-79
2024/03/05 02:50:47;;;;;;;112.83;45.37;;;7.50;99.90;;;;;;785973;180;26485;-78
2024/03/05 02:53:12;;;;;;;115.37;46.17;;;7.50;99.90;;;;;;784020;183;26470;-79
2024/03/05 02:55:38;;;;;;;110.20;44.70;;;7.50;99.90;;;;;;792213;179;26452;-78
2024/03/05 02:58:06;;;;;;;107.87;46.07;;;7.40;99.90;;;;;;785269;179;26710;-79
2024/03/05 03:00:32;;;;;;;111.60;45.43;;;7.40;99.90;;;;;;789999;179;26456;-79
2024/03/05 03:03:01;;;;;;;111.17;46.80;;;7.40;99.90;;;;;;816775;168;26436;-82
2024/03/05 03:05:47;;;;;;;112.00;47.00;;;7.40;99.90;;;;;;799793;176;26471;-84
2024/03/05 03:08:21;;;;;;;115.07;46.33;;;7.40;99.90;;;;;;814905;173;26437;-81
2024/03/05 03:10:50;;;;;;;107.67;45.73;;;7.50;99.90;;;;;;803483;173;26414;-82
2024/03/05 03:13:23;;;;;;;111.27;46.50;;;7.50;99.90;;;;;;801847;176;26473;-83
2024/03/05 03:15:53;;;;;;;112.20;45.40;;;7.60;99.90;;;;;;816284;173;26435;-83
2024/03/05 03:18:26;;;;;;;123.33;47.80;;;7.60;99.90;;;;;;813843;173;26407;-83
2024/03/05 03:20:57;;;;;;;116.40;44.73;;;7.60;99.90;;;;;;821298;173;26420;-84
2024/03/05 03:23:27;;;;;;;112.50;44.77;;;7.60;99.90;;;;;;798330;179;26450;-83
2024/03/05 03:26:03;;;;;;;116.90;46.90;;;7.60;99.90;;;;;;822673;173;26429;-84
2024/03/05 03:28:44;;;;;;;116.87;48.10;;;7.50;99.90;;;;;;822577;173;26427;-83
2024/03/05 03:31:19;;;;;;;115.13;48.57;;;7.50;99.90;;;;;;816846;173;26411;-83
2024/03/05 03:33:46;;;;;;;123.97;50.70;;;7.40;99.90;;;;;;774748;184;27016;-85
2024/03/05 03:36:13;;;;;;;120.70;48.47;;;7.40;99.90;;;;;;771067;184;27024;-86
2024/03/05 03:38:39;;;;;;;117.13;46.50;;;7.40;99.90;;;;;;762793;186;26532;-85
2024/03/05 03:41:08;;;;;;;124.13;46.77;;;7.40;99.90;;;;;;762628;187;27036;-86
2024/03/05 03:43:33;;;;;;;119.17;49.37;;;7.40;99.90;;;;;;759702;185;26525;-86
2024/03/05 03:46:00;;;;;;;125.97;48.07;;;7.40;99.90;;;;;;763821;188;26509;-86
2024/03/05 03:48:27;;;;;;;122.13;47.73;;;7.40;99.90;;;;;;767049;187;26506;-86
2024/03/05 03:50:53;;;;;;;123.43;47.33;;;7.40;99.90;;;;;;764830;186;26506;-86
2024/03/05 03:53:20;;;;;;;116.60;47.60;;;7.40;99.90;;;;;;765130;187;26576;-86
2024/03/05 03:55:47;;;;;;;112.00;46.23;;;7.50;99.90;;;;;;766468;187;26515;-86
2024/03/05 03:58:14;;;;;;;113.60;47.53;;;7.60;99.90;;;;;;762390;187;27049;-86
2024/03/05 04:00:40;;;;;;;117.77;47.30;;;7.50;99.90;;;;;;760599;187;27081;-87
2024/03/05 04:03:07;;;;;;;118.43;46.07;;;7.60;99.90;;;;;;763570;187;26522;-86
2024/03/05 04:05:34;;;;;;;110.33;45.77;;;7.60;99.90;;;;;;760609;188;26512;-85
2024/03/05 04:08:01;;;;;;;105.83;44.87;;;7.60;99.90;;;;;;760694;188;26500;-86
2024/03/05 04:10:28;;;;;;;111.93;44.53;;;7.60;99.90;;;;;;761785;188;26526;-85
2024/03/05 04:12:56;;;;;;;105.13;44.23;;;7.70;99.90;;;;;;759504;188;26506;-85
2024/03/05 04:15:21;;;;;;;108.67;46.97;;;7.70;99.90;;;;;;761076;184;26490;-85
2024/03/05 04:17:48;;;;;;;112.47;43.77;;;7.70;99.90;;;;;;761122;184;27334;-85
2024/03/05 04:20:16;;;;;;;118.60;45.47;;;7.70;99.90;;;;;;763764;187;26554;-85
2024/03/05 04:22:42;;;;;;;115.43;45.03;;;7.60;99.90;;;;;;760897;188;27309;-85
2024/03/05 04:25:09;;;;;;;110.13;44.63;;;7.70;99.90;;;;;;760003;187;26511;-85
2024/03/05 04:27:41;;;;;;;112.63;44.73;;;7.70;99.90;;;;;;759541;189;26522;-85
2024/03/05 04:30:10;;;;;;;123.03;46.00;;;7.80;99.90;;;;;;758046;188;26520;-85
2024/03/05 04:32:31;;;;;;;116.20;45.10;;;7.70;99.90;;;;;;760364;189;27054;-86
2024/03/05 04:35:01;;;;;;;120.67;48.03;;;7.70;99.90;;;;;;760056;186;26506;-85
2024/03/05 04:37:29;;;;;;;114.07;46.37;;;7.70;99.90;;;;;;764286;188;26583;-88
2024/03/05 04:39:55;;;;;;;118.07;46.97;;;7.70;99.90;;;;;;762573;188;26522;-86
2024/03/05 04:42:23;;;;;;;116.37;44.90;;;7.70;99.90;;;;;;765828;187;26544;-85
2024/03/05 04:44:50;;;;;;;119.07;47.40;;;7.70;99.90;;;;;;764950;184;27084;-86
2024/03/05 04:47:17;;;;;;;107.30;45.10;;;7.70;99.90;;;;;;759892;189;26508;-85
2024/03/05 04:49:44;;;;;;;111.90;45.10;;;7.70;99.90;;;;;;762275;188;26529;-86
2024/03/05 04:52:11;;;;;;;109.97;44.67;;;7.70;99.90;;;;;;763036;187;26563;-84
2024/03/05 04:54:37;;;;;;;109.10;44.73;;;7.70;99.90;;;;;;765378;185;26495;-86
2024/03/05 04:57:05;;;;;;;116.00;44.87;;;7.70;99.90;;;;;;763963;187;26495;-81
2024/03/05 04:59:31;;;;;;;108.47;43.63;;;7.70;99.90;;;;;;762537;187;26550;-80
2024/03/05 05:01:58;;;;;;;116.67;47.27;;;7.70;99.90;;;;;;764951;187;26498;-81
2024/03/05 05:04:25;;;;;;;112.33;46.23;;;7.70;99.90;;;;;;766551;185;26480;-80
2024/03/05 05:06:51;;;;;;;112.63;45.10;;;7.70;99.90;;;;;;764756;187;27062;-81
2024/03/05 05:09:22;;;;;;;113.90;44.87;;;7.70;99.90;;;;;;763496;187;26656;-81
2024/03/05 05:11:45;;;;;;;116.37;44.73;;;7.70;99.90;;;;;;766943;184;27057;-82
2024/03/05 05:14:12;;;;;;;110.07;43.70;;;7.70;99.90;;;;;;764676;187;26482;-81
2024/03/05 05:16:39;;;;;;;103.63;43.43;;;7.70;99.90;;;;;;762593;187;26641;-82
2024/03/05 05:19:06;;;;;;;111.27;43.67;;;7.80;99.90;;;;;;763804;184;26518;-82
2024/03/05 05:21:32;;;;;;;117.10;45.17;;;7.80;99.90;;;;;;762790;187;26550;-81
2024/03/05 05:23:59;;;;;;;111.73;43.83;;;7.80;99.90;;;;;;761426;187;26496;-81
2024/03/05 05:26:26;;;;;;;112.37;45.53;;;7.80;99.90;;;;;;762743;187;26525;-81
2024/03/05 05:28:53;;;;;;;124.33;45.63;;;7.80;99.90;;;;;;762319;186;26575;-82
2024/03/05 05:31:25;;;;;;;113.93;43.73;;;7.70;99.90;;;;;;760955;184;26505;-82
2024/03/05 05:33:51;;;;;;;109.60;45.37;;;7.70;99.90;;;;;;762909;187;26544;-82
2024/03/05 05:36:17;;;;;;;114.67;44.70;;;7.70;99.90;;;;;;763064;187;26509;-83
2024/03/05 05:38:44;;;;;;;109.50;45.53;;;7.70;99.90;;;;;;763235;188;26700;-82
2024/03/05 05:41:11;;;;;;;120.40;46.53;;;7.70;99.90;;;;;;764977;188;26541;-81
2024/03/05 05:43:37;;;;;;;114.50;44.00;;;7.70;99.90;;;;;;762554;187;26494;-83
2024/03/05 05:46:04;;;;;;;115.93;47.17;;;7.70;99.90;;;;;;765119;188;26483;-79
2024/03/05 05:48:33;;;;;;;111.80;43.90;;;7.70;99.90;;;;;;768845;185;26611;-82
2024/03/05 05:51:01;;;;;;;121.47;46.70;;;7.70;99.90;;;;;;762697;187;26505;-81
2024/03/05 05:53:27;;;;;;;117.67;44.43;;;7.70;99.90;;;;;;760399;189;26485;-80
2024/03/05 05:55:53;;;;;;;121.23;45.33;;;7.70;99.90;;;;;;763030;188;26514;-83
2024/03/05 05:58:20;;;;;;;118.27;45.90;;;7.70;99.90;;;;;;766166;186;26499;-80
2024/03/05 06:00:47;;;;;;;116.97;45.10;;;7.70;99.90;;;;;;761661;188;26519;-80
2024/03/05 06:03:13;;;;;;;118.87;46.67;;;7.70;99.90;;;;;;762873;184;26497;-79
2024/03/05 06:05:42;;;;;;;118.73;45.13;;;7.70;99.90;;;;;;760298;188;26527;-77
2024/03/05 06:08:10;;;;;;;110.60;44.70;;;7.80;99.90;;;;;;762660;187;26507;-78
2024/03/05 06:10:33;;;;;;;122.90;47.63;;;7.80;99.90;;;;;;762488;187;26512;-78
2024/03/05 06:13:00;;;;;;;116.07;45.73;;;7.80;99.90;;;;;;769016;187;27032;-81
2024/03/05 06:15:29;;;;;;;118.53;45.70;;;7.80;99.90;;;;;;768871;184;26522;-81
2024/03/05 06:17:55;;;;;;;113.47;44.23;;;7.80;99.90;;;;;;764890;184;26507;-78
2024/03/05 06:20:21;;;;;;;119.20;45.50;;;7.90;99.90;;;;;;761704;184;26533;-82
2024/03/05 06:22:47;;;;;;;121.67;45.93;;;8.00;99.90;;;;;;759692;187;26505;-81
2024/03/05 06:25:13;;;;;;;117.97;46.33;;;7.90;99.90;;;;;;764106;187;26463;-82
2024/03/05 06:27:40;;;;;;;113.87;45.77;;;8.00;99.90;;;;;;764452;184;26511;-82
2024/03/05 06:30:08;;;;;;;114.77;45.53;;;7.90;99.90;;;;;;765249;185;26517;-80
2024/03/05 06:32:37;;;;;;;122.30;43.60;;;7.90;99.90;;;;;;762869;184;26526;-81
2024/03/05 06:35:05;;;;;;;120.40;45.90;;;8.00;99.90;;;;;;765004;187;26464;-80
2024/03/05 06:37:31;;;;;;;116.17;46.27;;;8.00;99.90;;;;;;761834;187;26536;-80
2024/03/05 06:39:58;;;;;;;125.83;45.50;;;8.00;99.90;;;;;;762437;186;26538;-81
2024/03/05 06:42:24;;;;;;;123.47;45.57;;;8.00;99.90;;;;;;763159;186;26494;-80
2024/03/05 06:44:54;;;;;;;113.43;44.43;;;8.00;99.90;;;;;;762985;187;26488;-82
2024/03/05 06:47:26;;;;;;;120.73;45.57;;;8.00;99.90;;;;;;765418;186;26682;-81
2024/03/05 06:49:44;;;;;;;113.53;45.00;;;8.10;99.90;;;;;;761167;187;26508;-81
2024/03/05 06:57:15;;;;;;;116.70;44.70;;;8.10;99.90;;;;;;761824;188;26513;-82
2024/03/05 06:59:41;;;;;;;115.20;42.17;;;8.10;99.90;;;;;;762677;188;26548;-81
2024/03/05 07:02:08;;;;;;;107.87;44.10;;;8.10;99.90;;;;;;762236;188;26505;-81
2024/03/05 07:04:35;;;;;;;116.50;43.23;;;8.10;99.90;;;;;;759092;187;27055;-82
2024/03/05 07:07:03;;;;;;;117.67;44.77;;;8.20;99.90;;;;;;767509;188;26532;-82
2024/03/05 07:09:30;;;;;;;120.20;45.10;;;8.20;99.90;;;;;;767145;187;26552;-82
2024/03/05 07:11:57;;;;;;;114.10;44.00;;;8.20;99.90;;;;;;760069;186;26522;-81
2024/03/05 07:14:22;;;;;;;124.00;44.80;;;8.20;99.90;;;;;;758035;189;26520;-81
2024/03/05 07:16:48;;;;;;;117.70;43.43;;;8.20;99.90;;;;;;758766;188;26507;-81
2024/03/05 07:19:15;;;;;;;119.80;45.27;;;8.20;99.90;;;;;;767021;188;26518;-81
2024/03/05 07:21:42;;;;;;;113.57;44.77;;;8.20;99.90;;;;;;767609;185;26489;-81
2024/03/05 07:24:10;;;;;;;118.47;44.30;;;8.20;99.90;;;;;;764485;187;26517;-80
2024/03/05 07:26:36;;;;;;;116.43;44.17;;;8.20;99.90;;;;;;763925;184;27032;-81
2024/03/05 07:29:02;;;;;;;119.33;46.90;;;8.20;99.90;;;;;;760915;189;26488;-81
2024/03/05 07:31:28;;;;;;;121.77;46.90;;;8.20;99.90;;;;;;747029;191;26527;-81
2024/03/05 07:33:55;;;;;;;119.70;45.07;;;8.30;99.90;;;;;;761866;188;26470;-82
2024/03/05 07:36:21;;;;;;;128.53;46.57;;;8.20;99.90;;;;;;762588;189;26469;-81
2024/03/05 07:38:48;;;;;;;125.83;45.67;;;8.20;99.90;;;;;;761692;189;26479;-81
2024/03/05 07:41:17;;;;;;;118.97;43.60;;;8.20;99.90;;;;;;755589;189;26451;-82
2024/03/05 07:43:42;;;;;;;124.57;46.73;;;8.20;99.90;;;;;;755368;189;26993;-81
2024/03/05 07:46:08;;;;;;;117.13;44.43;;;8.20;99.90;;;;;;760683;189;27037;-80
2024/03/05 07:48:35;;;;;;;123.23;46.10;;;8.30;99.90;;;;;;774229;185;26590;-80
2024/03/05 07:51:02;;;;;;;130.70;45.80;;;8.30;99.90;;;;;;750096;191;26528;-80
2024/03/05 07:53:29;;;;;;;124.43;46.33;;;8.30;99.90;;;;;;758303;188;27020;-80
2024/03/05 07:55:57;;;;;;;124.00;43.63;;;8.30;99.90;;;;;;765787;187;26506;-81
2024/03/05 07:58:24;;;;;;;129.77;48.30;;;8.20;99.90;;;;;;763271;187;27127;-82
2024/03/05 08:00:50;;;;;;;136.97;47.23;;;8.30;99.90;;;;;;763003;188;26538;-80
2024/03/05 08:03:17;;;;;;;124.70;44.23;;;8.30;99.90;;;;;;761816;187;26508;-81
2024/03/05 08:05:44;;;;;;;122.33;44.07;;;8.30;99.90;;;;;;764692;188;26515;-81
2024/03/05 08:08:10;;;;;;;120.30;46.23;;;8.30;99.90;;;;;;766401;185;26539;-81
2024/03/05 08:10:37;;;;;;;132.67;46.60;;;8.30;99.90;;;;;;760884;187;26496;-82
2024/03/05 08:13:04;;;;;;;142.13;46.73;;;8.30;99.90;;;;;;764381;187;26510;-82
2024/03/05 08:15:30;;;;;;;116.70;42.53;;;8.30;99.90;;;;;;760979;184;26530;-81
2024/03/05 08:17:58;;;;;;;134.63;46.13;;;8.30;99.90;;;;;;762307;188;27069;-82
2024/03/05 08:20:26;;;;;;;125.77;45.57;;;8.40;99.90;;;;;;762124;186;26499;-82
2024/03/05 08:22:52;;;;;;;129.50;43.33;;;8.40;99.90;;;;;;758520;184;26554;-82
2024/03/05 08:25:19;;;;;;;126.33;46.00;;;8.30;99.90;;;;;;759378;189;26495;-82
2024/03/05 08:27:47;;;;;;;151.03;49.20;;;8.40;99.90;;;;;;759621;187;27116;-81
2024/03/05 08:30:15;;;;;;;140.00;48.20;;;8.40;99.90;;;;;;766033;188;27059;-84
2024/03/05 08:32:42;;;;;;;134.93;47.23;;;8.40;99.90;;;;;;762853;188;26682;-82
2024/03/05 08:35:09;;;;;;;139.50;47.67;;;8.40;99.90;;;;;;765572;186;26524;-82
2024/03/05 08:37:36;;;;;;;124.03;47.23;;;8.40;99.90;;;;;;776992;184;26485;-83
2024/03/05 08:40:04;;;;;;;129.40;46.07;;;8.50;99.90;;;;;;774303;185;26494;-82
2024/03/05 08:42:31;;;;;;;133.80;47.87;;;8.40;99.90;;;;;;767600;185;26484;-82
2024/03/05 08:44:58;;;;;;;129.40;45.83;;;8.40;99.90;;;;;;761057;187;26502;-80
2024/03/05 08:47:24;;;;;;;119.63;45.10;;;8.30;99.90;;;;;;766556;187;26559;-81
2024/03/05 08:49:52;;;;;;;130.00;46.47;;;8.30;99.90;;;;;;764665;187;26532;-81
2024/03/05 08:52:20;;;;;;;134.13;47.07;;;8.30;99.90;;;;;;765372;186;26505;-80
2024/03/05 08:54:44;;;;;;;130.83;46.90;;;8.30;99.90;;;;;;765581;187;27038;-82
2024/03/05 08:57:12;;;;;;;134.60;47.13;;;8.30;99.90;;;;;;767659;185;26560;-82
2024/03/05 08:59:39;;;;;;;137.23;45.37;;;8.30;99.90;;;;;;765783;184;26564;-82
2024/03/05 09:02:09;;;;;;;130.00;46.73;;;8.30;99.90;;;;;;769008;172;26434;-79
2024/03/05 09:04:37;;;;;;;147.13;48.03;;;8.30;99.90;;;;;;812379;173;26494;-79
2024/03/05 09:07:09;;;;;;;147.43;47.47;;;8.30;99.90;;;;;;823099;171;26557;-80
2024/03/05 09:12:13;;;;;;;131.93;47.30;;;8.30;99.90;;;;;;825715;173;26389;-79
2024/03/05 09:14:49;;;;;;;146.20;49.33;;;8.30;99.90;;;;;;822124;173;26406;-78
2024/03/05 09:17:17;;;;;;;145.83;52.13;;;8.30;99.90;;;;;;805357;177;26564;-79
2024/03/05 09:19:46;;;;;;;153.87;51.80;;;8.30;99.90;;;;;;822387;174;26394;-79
2024/03/05 09:22:21;;;;;;;162.97;52.80;;;8.30;99.90;;;;;;822769;174;26455;-79
2024/03/05 09:24:52;;;;;;;149.17;50.13;;;8.30;99.90;;;;;;810642;176;26404;-80
2024/03/05 09:27:24;;;;;;;153.73;49.13;;;8.30;99.90;;;;;;806674;174;26400;-79
2024/03/05 09:29:55;;;;;;;160.80;52.53;;;8.30;99.90;;;;;;806804;174;26413;-77
2024/03/05 09:32:28;;;;;;;169.37;51.83;;;8.30;99.90;;;;;;808750;174;26457;-78
2024/03/05 09:34:59;;;;;;;146.77;50.07;;;8.30;99.90;;;;;;807832;176;26403;-80
2024/03/05 09:40:02;;;;;;;154.40;48.40;;;8.40;99.90;;;;;;807630;176;26426;-80
2024/03/05 09:42:31;;;;;;;159.10;50.63;;;8.40;99.90;;;;;;809341;172;26439;-80
2024/03/05 09:45:05;;;;;;;142.13;50.07;;;8.40;99.90;;;;;;815719;174;26454;-80
2024/03/05 09:47:41;;;;;;;162.67;50.67;;;8.40;99.90;;;;;;814370;172;26559;-80
2024/03/05 09:50:11;;;;;;;161.23;52.37;;;8.40;99.90;;;;;;812732;176;26462;-80
2024/03/05 09:52:39;;;;;;;151.00;50.53;;;8.40;99.90;;;;;;810622;174;26442;-80
2024/03/05 09:57:43;;;;;;;165.13;50.77;;;8.40;99.90;;;;;;808941;178;26415;-80
2024/03/05 10:00:21;;;;;;;163.77;51.50;;;8.40;99.90;;;;;;811253;175;26456;-78
2024/03/05 10:02:50;;;;;;;144.37;50.30;;;8.40;99.90;;;;;;811980;173;26449;-79
2024/03/05 10:05:30;;;;;;;;;;;;;;;;;;;;;
2024/03/05 10:07:57;;;;;;;189.40;54.57;;;8.40;99.90;;;;;;809814;171;26415;-78
2024/03/05 10:10:29;;;;;;;171.57;53.80;;;8.40;99.90;;;;;;810348;174;26578;-77
2024/03/05 10:12:59;;;;;;;193.77;67.13;;;8.50;99.90;;;;;;809547;171;26447;-78
2024/03/05 10:15:28;;;;;;;132.00;48.50;;;8.50;99.90;;;;;;814962;174;26421;-78
2024/03/05 10:18:00;;;;;;;128.33;47.20;;;8.60;99.90;;;;;;810047;176;26427;-78
2024/03/05 10:20:33;;;;;;;127.13;46.10;;;8.60;99.90;;;;;;812626;175;27076;-78
2024/03/05 10:23:03;;;;;;;144.60;47.30;;;8.70;99.90;;;;;;808869;175;27055;-80
2024/03/05 10:25:34;;;;;;;125.40;46.57;;;8.80;99.90;;;;;;811017;174;26444;-79
2024/03/05 10:28:01;;;;;;;118.73;44.77;;;8.80;99.90;;;;;;807962;174;26426;-81
2024/03/05 10:30:31;;;;;;;130.37;47.87;;;8.90;99.90;;;;;;810912;176;26419;-79
2024/03/05 10:32:57;;;;;;;122.73;44.43;;;8.90;99.90;;;;;;807899;173;26443;-82
2024/03/05 10:35:23;;;;;;;143.97;48.70;;;9.00;99.90;;;;;;808062;178;26550;-81
2024/03/05 10:37:55;;;;;;;115.47;46.07;;;9.10;99.90;;;;;;807486;176;26422;-80
2024/03/05 10:40:22;;;;;;;160.00;60.63;;;9.10;99.90;;;;;;808238;174;26470;-81
2024/03/05 10:42:49;;;;;;;148.90;59.87;;;9.10;99.90;;;;;;809040;174;26450;-81
2024/03/05 10:45:15;;;;;;;111.87;41.20;;;9.00;99.90;;;;;;810591;174;26551;-79
2024/03/05 10:47:42;;;;;;;117.47;46.70;;;8.90;99.90;;;;;;807929;175;26423;-79
2024/03/05 10:50:13;;;;;;;113.50;42.50;;;8.90;99.90;;;;;;810263;173;26423;-80
2024/03/05 10:52:35;;;;;;;123.20;46.80;;;8.90;99.90;;;;;;807981;174;26461;-78
2024/03/05 10:55:02;;;;;;;110.10;43.03;;;8.90;99.90;;;;;;808467;172;26419;-79
2024/03/05 10:57:28;;;;;;;187.50;75.03;;;9.00;99.90;;;;;;811479;176;27086;-80
2024/03/05 10:59:55;;;;;;;117.67;52.80;;;9.00;99.90;;;;;;812808;174;26424;-80
2024/03/05 11:02:24;;;;;;;108.70;42.90;;;9.00;99.90;;;;;;814397;176;26445;-80
2024/03/05 11:04:48;;;;;;;106.37;43.50;;;9.10;99.90;;;;;;812347;173;26417;-80
2024/03/05 11:07:15;;;;;;;127.37;51.97;;;9.20;99.90;;;;;;812333;176;26430;-80
2024/03/05 11:09:42;;;;;;;173.63;72.57;;;9.20;99.90;;;;;;810305;176;26455;-81
2024/03/05 11:12:09;;;;;;;233.23;101.53;;;9.20;99.90;;;;;;812854;173;26621;-81
2024/03/05 11:14:36;;;;;;;283.20;123.33;;;9.30;99.90;;;;;;812714;176;26448;-80
2024/03/05 11:17:04;;;;;;;167.93;69.37;;;9.30;99.90;;;;;;808414;175;26465;-80
2024/03/05 11:19:32;;;;;;;280.63;122.93;;;9.30;99.90;;;;;;809017;175;26409;-81
2024/03/05 11:21:58;;;;;;;160.20;66.17;;;9.20;99.90;;;;;;809168;176;26440;-78
2024/03/05 11:24:25;;;;;;;433.93;184.10;;;9.20;99.90;;;;;;811943;175;26580;-79
2024/03/05 11:27:11;;;;;;;183.53;73.03;;;9.10;99.90;;;;;;810077;171;26543;-78
2024/03/05 11:29:33;;;;;;;160.77;66.10;;;9.20;99.90;;;;;;808504;177;26430;-80
2024/03/05 11:32:03;;;;;;;189.57;70.60;;;9.20;99.90;;;;;;810892;173;26419;-81
2024/03/05 11:34:27;;;;;;;141.80;54.30;;;9.30;99.90;;;;;;807073;174;26427;-80
2024/03/05 11:37:06;;;;;;;124.87;50.43;;;9.20;99.90;;;;;;808887;174;26436;-80
2024/03/05 11:39:35;;;;;;;77.90;36.67;;;9.30;99.90;;;;;;812154;172;26425;-81
2024/03/05 11:41:59;;;;;;;114.43;49.90;;;9.20;99.90;;;;;;807988;175;26430;-79
2024/03/05 11:44:54;;;;;;;120.63;52.93;;;9.20;99.90;;;;;;808371;176;26572;-80
2024/03/05 11:47:21;;;;;;;111.43;48.00;;;9.20;99.90;;;;;;806240;175;26574;-79
2024/03/05 11:49:48;;;;;;;79.67;36.80;;;9.30;99.90;;;;;;812761;174;26426;-81
2024/03/05 11:52:15;;;;;;;181.93;77.03;;;9.30;99.90;;;;;;813568;173;26442;-81
2024/03/05 11:54:42;;;;;;;79.13;37.87;;;9.30;99.90;;;;;;810459;173;26456;-80
2024/03/05 11:57:10;;;;;;;88.93;38.57;;;9.30;99.90;;;;;;807762;174;26435;-80
2024/03/05 11:59:37;;;;;;;77.33;35.73;;;9.30;99.90;;;;;;810407;175;26425;-80
2024/03/05 12:02:12;;;;;;;96.23;43.97;;;9.30;99.90;;;;;;810631;176;26452;-80
2024/03/05 12:04:39;;;;;;;79.47;36.07;;;9.40;99.90;;;;;;807854;178;26416;-79
2024/03/05 12:07:08;;;;;;;200.63;87.37;;;9.40;99.90;;;;;;807792;177;26415;-80
2024/03/05 12:09:38;;;;;;;255.37;113.17;;;9.50;99.90;;;;;;810499;175;26460;-80
2024/03/05 12:12:06;;;;;;;222.37;101.37;;;9.60;99.90;;;;;;813993;173;26413;-80
2024/03/05 12:14:32;;;;;;;95.00;42.97;;;9.60;99.90;;;;;;810924;173;26414;-80
2024/03/05 12:17:02;;;;;;;54.60;29.80;;;9.70;99.90;;;;;;809297;176;26442;-79
2024/03/05 12:19:26;;;;;;;57.37;29.47;;;9.70;99.90;;;;;;808684;174;26425;-80
2024/03/05 12:21:53;;;;;;;57.17;26.60;;;9.70;99.90;;;;;;811523;174;26427;-80
2024/03/05 12:24:21;;;;;;;55.27;29.60;;;9.70;99.90;;;;;;809102;174;26423;-80
2024/03/05 12:26:47;;;;;;;44.50;26.33;;;9.70;99.90;;;;;;814160;174;26410;-80
2024/03/05 12:29:13;;;;;;;40.90;21.47;;;9.70;99.90;;;;;;808434;175;26547;-80
2024/03/05 12:31:39;;;;;;;46.50;25.93;;;9.60;99.90;;;;;;812977;176;26424;-80
2024/03/05 12:34:06;;;;;;;55.60;27.77;;;9.60;99.90;;;;;;815238;173;26437;-82
2024/03/05 12:36:33;;;;;;;61.13;31.40;;;9.60;99.90;;;;;;809896;176;26415;-81
2024/03/05 12:38:59;;;;;;;48.83;25.67;;;9.60;99.90;;;;;;808297;178;26504;-80
2024/03/05 12:41:26;;;;;;;50.40;27.43;;;9.70;99.90;;;;;;810477;174;26428;-80
2024/03/05 12:43:53;;;;;;;58.57;32.53;;;9.60;99.90;;;;;;814752;175;26576;-80